Llambi Campbell, Argentina
Current Conditions -  °F | °C
As of 7:00 PM on Friday 31 Oct 2014 (Local Time) from SAAR Reporting Station
Moderate Rain Moderate Rain  
Wind Chill: 66°   Ceiling: 5000
Heat Index: 66°   Visibility: 3mi
Dew Point: 63°   Wind: 5mph
Humidity: 88%   Direction: 140°SE
Pressure: 29.97"   Gusts: NA
Location:  31.18°S, 60.75°W
Report Text: SAAR 312200Z 14004KT 5000 RA SCT025 OVC05019/17 Q1015
Loading
Personal Weather Stations






























Interactive Weather Map New forecast layout! Learn more

10-Day Weather Forecast

Advertisements
Track Severe Weather on mobile